createdAt,value
2018-06-20T00:05:00.294Z,101005.00
2018-06-20T00:10:03.887Z,101010.00
2018-06-20T00:15:07.135Z,101018.00
2018-06-20T00:20:10.180Z,101017.00
2018-06-20T00:25:13.488Z,101013.00
2018-06-20T00:30:16.859Z,101009.00
2018-06-20T00:35:19.869Z,101002.00
2018-06-20T00:40:23.059Z,100999.00
2018-06-20T00:45:26.281Z,101000.00
2018-06-20T00:50:29.289Z,101003.00
2018-06-20T00:55:49.371Z,100989.00
2018-06-20T01:00:52.609Z,100991.00
2018-06-20T01:05:55.591Z,100986.00
2018-06-20T01:10:58.585Z,100990.00
2018-06-20T01:16:01.617Z,100984.00
2018-06-20T01:21:04.823Z,100973.00
2018-06-20T01:26:07.967Z,100978.00
2018-06-20T01:31:11.234Z,100974.00
2018-06-20T01:36:14.427Z,100974.00
2018-06-20T01:41:17.437Z,100968.00
2018-06-20T01:46:20.604Z,100969.00
2018-06-20T01:51:23.681Z,100974.00
2018-06-20T01:56:26.709Z,100970.00
2018-06-20T02:01:29.947Z,100966.00
2018-06-20T02:06:32.964Z,100969.00
2018-06-20T02:11:36.103Z,100973.00
2018-06-20T02:16:39.142Z,100961.00
2018-06-20T02:21:42.875Z,100972.00
2018-06-20T02:26:46.018Z,100969.00
2018-06-20T02:31:49.316Z,100967.00
2018-06-20T02:36:52.396Z,100973.00
2018-06-20T02:41:55.419Z,100967.00
2018-06-20T02:46:58.419Z,100964.00
2018-06-20T02:52:01.644Z,100965.00
2018-06-20T02:57:04.683Z,100962.00
2018-06-20T03:02:08.066Z,100957.00
2018-06-20T03:07:11.039Z,100961.00
2018-06-20T03:12:14.067Z,100954.00
2018-06-20T03:17:17.126Z,100950.00
2018-06-20T03:22:20.153Z,100951.00
2018-06-20T03:27:23.453Z,100946.00
2018-06-20T03:32:26.505Z,100944.00
2018-06-20T03:37:29.808Z,100945.00
2018-06-20T03:42:33.133Z,100945.00
2018-06-20T03:47:36.428Z,100943.00
2018-06-20T03:52:39.441Z,100941.00
2018-06-20T03:57:42.655Z,100944.00
2018-06-20T04:02:45.757Z,100946.00
2018-06-20T04:07:48.784Z,100945.00
2018-06-20T04:12:51.843Z,100950.00
2018-06-20T04:17:54.928Z,100951.00
2018-06-20T04:22:57.946Z,100947.00
2018-06-20T04:28:01.084Z,100944.00
2018-06-20T04:33:04.088Z,100935.00
2018-06-20T04:38:07.491Z,100930.00
2018-06-20T04:43:10.497Z,100932.00
2018-06-20T04:48:13.513Z,100925.00
2018-06-20T04:53:17.212Z,100924.00
2018-06-20T04:58:20.472Z,100915.00
2018-06-20T05:03:23.599Z,100906.00
2018-06-20T05:08:27.037Z,100916.00
2018-06-20T05:13:30.117Z,100913.00
2018-06-20T05:18:33.215Z,100915.00
2018-06-20T05:23:36.373Z,100918.00
2018-06-20T05:28:39.360Z,100911.00
2018-06-20T05:33:42.413Z,100915.00
2018-06-20T05:38:45.580Z,100913.00
2018-06-20T05:43:48.566Z,100912.00
2018-06-20T05:48:51.597Z,100901.00
2018-06-20T05:53:54.854Z,100899.00
2018-06-20T05:58:58.002Z,100897.00
2018-06-20T06:04:01.027Z,100891.00
2018-06-20T06:09:06.591Z,100894.00
2018-06-20T06:14:09.620Z,100883.00
2018-06-20T06:19:12.865Z,100885.00
2018-06-20T06:24:16.206Z,100866.00
2018-06-20T06:29:19.187Z,100875.00
2018-06-20T06:34:22.405Z,100881.00
2018-06-20T06:39:25.619Z,100874.00
2018-06-20T06:44:28.604Z,100866.00
2018-06-20T06:49:31.815Z,100860.00
2018-06-20T06:54:34.775Z,100867.00
2018-06-20T06:59:37.938Z,100867.00
2018-06-20T07:04:40.902Z,100868.00
2018-06-20T07:09:44.046Z,100871.00
2018-06-20T07:14:47.146Z,100866.00
2018-06-20T07:19:50.182Z,100869.00
2018-06-20T07:24:53.114Z,100872.00
2018-06-20T07:29:56.293Z,100874.00
2018-06-20T07:34:59.575Z,100856.00
2018-06-20T07:40:02.594Z,100854.00
2018-06-20T07:45:05.725Z,100866.00
2018-06-20T07:50:08.687Z,100859.00
2018-06-20T07:55:11.654Z,100853.00
2018-06-20T08:00:20.494Z,100859.00
2018-06-20T08:05:29.246Z,100849.00
2018-06-20T08:10:38.059Z,100851.00
2018-06-20T08:15:46.717Z,100860.00
2018-06-20T08:20:49.796Z,100857.00
2018-06-20T08:25:52.980Z,100847.00
2018-06-20T08:30:55.930Z,100852.00
2018-06-20T08:35:58.955Z,100855.00
2018-06-20T08:41:01.946Z,100848.00
2018-06-20T08:46:05.016Z,100846.00
2018-06-20T08:51:07.974Z,100850.00
2018-06-20T08:56:11.075Z,100844.00
2018-06-20T09:01:14.012Z,100836.00
2018-06-20T09:06:22.751Z,100834.00
2018-06-20T09:11:31.357Z,100825.00
2018-06-20T09:16:40.290Z,100827.00
2018-06-20T09:21:43.664Z,100824.00
2018-06-20T09:26:46.573Z,100824.00
2018-06-20T09:31:49.542Z,100818.00
2018-06-20T09:36:52.547Z,100818.00
2018-06-20T09:41:55.545Z,100815.00
2018-06-20T09:46:59.130Z,100807.00
2018-06-20T09:52:02.235Z,100806.00
2018-06-20T09:57:05.280Z,100803.00
2018-06-20T10:02:14.279Z,100797.00
2018-06-20T10:07:27.809Z,100795.00
2018-06-20T10:12:37.332Z,100787.00
2018-06-20T10:17:40.717Z,100785.00
2018-06-20T10:22:43.728Z,100774.00
2018-06-20T10:27:46.950Z,100781.00
2018-06-20T10:32:50.237Z,100769.00
2018-06-20T10:37:53.328Z,100766.00
2018-06-20T10:42:56.265Z,100768.00
2018-06-20T10:47:59.378Z,100760.00
2018-06-20T10:53:02.456Z,100751.00
2018-06-20T10:58:12.576Z,100740.00
2018-06-20T11:03:21.346Z,100743.00
2018-06-20T11:08:29.903Z,100734.00
2018-06-20T11:13:33.104Z,100731.00
2018-06-20T11:18:39.334Z,100723.00
2018-06-20T11:23:42.445Z,100726.00
2018-06-20T11:28:45.718Z,100715.00
2018-06-20T11:33:48.901Z,100712.00
2018-06-20T11:38:52.132Z,100712.00
2018-06-20T11:43:55.155Z,100693.00
2018-06-20T11:48:58.213Z,100693.00
2018-06-20T11:54:01.268Z,100681.00
2018-06-20T11:59:10.297Z,100672.00
2018-06-20T12:04:18.960Z,100664.00
2018-06-20T12:09:27.626Z,100659.00
2018-06-20T12:14:36.276Z,100656.00
2018-06-20T12:19:44.909Z,100656.00
2018-06-20T12:24:53.693Z,100640.00
2018-06-20T12:30:09.471Z,100638.00
2018-06-20T12:35:18.507Z,100638.00
2018-06-20T12:40:26.259Z,100630.00
2018-06-20T12:45:29.440Z,100636.00
2018-06-20T12:50:32.402Z,100615.00
2018-06-20T12:55:35.676Z,100614.00
2018-06-20T13:00:38.822Z,100617.00
2018-06-20T13:05:42.071Z,100612.00
2018-06-20T13:10:45.218Z,100606.00
2018-06-20T13:15:48.294Z,100609.00
2018-06-20T13:20:51.397Z,100596.00
2018-06-20T13:25:54.459Z,100593.00
2018-06-20T13:31:03.145Z,100590.00
2018-06-20T13:36:11.888Z,100589.00
2018-06-20T13:41:20.828Z,100581.00
2018-06-20T13:46:29.639Z,100580.00
2018-06-20T13:51:32.860Z,100576.00
2018-06-20T13:56:35.826Z,100562.00
2018-06-20T14:01:38.859Z,100567.00
2018-06-20T14:06:42.287Z,100558.00
2018-06-20T14:11:46.209Z,100556.00
2018-06-20T14:16:49.296Z,100559.00
2018-06-20T14:21:52.244Z,100552.00
2018-06-20T14:26:55.212Z,100547.00
2018-06-20T14:33:06.881Z,100543.00
2018-06-20T14:38:15.729Z,100540.00
2018-06-20T14:43:24.720Z,100526.00
2018-06-20T14:48:27.901Z,100526.00
2018-06-20T14:53:30.871Z,100517.00
2018-06-20T14:58:33.870Z,100516.00
2018-06-20T15:03:37.005Z,100515.00
2018-06-20T15:08:39.952Z,100511.00
2018-06-20T15:13:42.898Z,100508.00
2018-06-20T15:18:46.106Z,100499.00
2018-06-20T15:23:49.468Z,100498.00
2018-06-20T15:28:58.028Z,100490.00
2018-06-20T15:34:06.557Z,100485.00
2018-06-20T15:39:09.500Z,100484.00
2018-06-20T15:44:12.651Z,100481.00
2018-06-20T15:49:15.625Z,100476.00
2018-06-20T15:54:18.602Z,100464.00
2018-06-20T15:59:21.738Z,100463.00
2018-06-20T16:04:24.718Z,100455.00
2018-06-20T16:09:33.324Z,100453.00
2018-06-20T16:14:36.315Z,100448.00
2018-06-20T16:19:45.069Z,100436.00
2018-06-20T16:24:53.594Z,100435.00
2018-06-20T16:30:02.257Z,100434.00
2018-06-20T16:35:05.535Z,100438.00
2018-06-20T16:40:08.479Z,100435.00
2018-06-20T16:45:13.499Z,100433.00
2018-06-20T16:50:16.446Z,100426.00
2018-06-20T16:55:19.519Z,100429.00
2018-06-20T17:00:22.489Z,100426.00
2018-06-20T17:05:25.481Z,100423.00
2018-06-20T17:10:28.460Z,100414.00
2018-06-20T17:15:37.167Z,100406.00
2018-06-20T17:20:45.871Z,100406.00
2018-06-20T17:25:48.851Z,100398.00
2018-06-20T17:30:51.767Z,100394.00
2018-06-20T17:35:54.843Z,100398.00
2018-06-20T17:40:58.076Z,100395.00
2018-06-20T17:46:01.108Z,100384.00
2018-06-20T17:51:04.089Z,100381.00
2018-06-20T17:56:07.183Z,100371.00
2018-06-20T18:01:11.852Z,100377.00
2018-06-20T18:06:20.650Z,100360.00
2018-06-20T18:11:29.468Z,100356.00
2018-06-20T18:16:38.143Z,100356.00
2018-06-20T18:21:41.215Z,100360.00
2018-06-20T18:26:44.260Z,100347.00
2018-06-20T18:31:47.350Z,100348.00
2018-06-20T18:36:50.396Z,100344.00
2018-06-20T18:41:53.475Z,100349.00
2018-06-20T18:46:56.548Z,100337.00
2018-06-20T18:51:59.967Z,100337.00
2018-06-20T18:57:02.962Z,100339.00
2018-06-20T19:02:11.764Z,100337.00
2018-06-20T19:07:20.414Z,100335.00
2018-06-20T19:12:24.645Z,100335.00
2018-06-20T19:17:27.729Z,100322.00
2018-06-20T19:22:30.797Z,100322.00
2018-06-20T19:27:33.816Z,100306.00
2018-06-20T19:32:37.022Z,100308.00
2018-06-20T19:37:40.047Z,100320.00
2018-06-20T19:42:43.050Z,100317.00
2018-06-20T19:47:46.192Z,100322.00
2018-06-20T19:52:49.451Z,100330.00
2018-06-20T19:57:52.624Z,100344.00
2018-06-20T20:02:55.797Z,100339.00
2018-06-20T20:07:59.072Z,100350.00
2018-06-20T20:13:02.341Z,100349.00
2018-06-20T20:18:05.317Z,100351.00
2018-06-20T20:23:08.299Z,100350.00
2018-06-20T20:28:11.266Z,100346.00
2018-06-20T20:33:14.267Z,100339.00
2018-06-20T20:38:17.238Z,100341.00
2018-06-20T20:43:20.436Z,100354.00
2018-06-20T20:48:23.513Z,100345.00
2018-06-20T20:53:27.040Z,100348.00
2018-06-20T20:58:30.074Z,100353.00
2018-06-20T21:03:33.073Z,100355.00
2018-06-20T21:08:36.242Z,100354.00
2018-06-20T21:13:39.484Z,100359.00
2018-06-20T21:18:42.389Z,100358.00
2018-06-20T21:23:45.556Z,100341.00
2018-06-20T21:28:48.760Z,100341.00
2018-06-20T21:33:51.882Z,100344.00
2018-06-20T21:38:55.069Z,100344.00
2018-06-20T21:43:58.087Z,100350.00
2018-06-20T21:49:01.203Z,100335.00
2018-06-20T21:54:04.195Z,100337.00
2018-06-20T21:59:07.259Z,100334.00
2018-06-20T22:04:10.293Z,100326.00
2018-06-20T22:09:13.428Z,100337.00
2018-06-20T22:14:28.376Z,100317.00
2018-06-20T22:19:31.332Z,100315.00
2018-06-20T22:24:34.716Z,100322.00
2018-06-20T22:29:37.711Z,100321.00
2018-06-20T22:34:41.734Z,100317.00
2018-06-20T22:39:44.948Z,100311.00
2018-06-20T22:44:47.979Z,100310.00
2018-06-20T22:49:51.132Z,100301.00
2018-06-20T22:54:54.167Z,100302.00
2018-06-20T22:59:57.198Z,100297.00
2018-06-20T23:05:00.298Z,100295.00
2018-06-20T23:10:03.792Z,100290.00
2018-06-20T23:15:06.997Z,100278.00
2018-06-20T23:20:10.053Z,100284.00
2018-06-20T23:25:13.051Z,100284.00
2018-06-20T23:30:16.221Z,100284.00
2018-06-20T23:35:19.211Z,100276.00
2018-06-20T23:40:22.323Z,100269.00
2018-06-20T23:45:25.335Z,100275.00
2018-06-20T23:50:28.352Z,100277.00
2018-06-20T23:55:31.369Z,100268.00
